createdAt,value
2024-01-06T00:00:57.046Z,1000.20
2024-01-06T00:01:56.846Z,1000.20
2024-01-06T00:02:56.857Z,1000.20
2024-01-06T00:03:56.963Z,1000.15
2024-01-06T00:04:56.817Z,1000.18
2024-01-06T00:05:56.855Z,1000.12
2024-01-06T00:06:56.869Z,1000.14
2024-01-06T00:07:56.759Z,1000.19
2024-01-06T00:08:56.740Z,1000.19
2024-01-06T00:09:56.824Z,1000.23
2024-01-06T00:10:56.722Z,1000.20
2024-01-06T00:11:56.722Z,1000.17
2024-01-06T00:12:56.725Z,1000.25
2024-01-06T00:13:56.700Z,1000.20
2024-01-06T00:14:56.683Z,1000.21
2024-01-06T00:15:56.727Z,1000.18
2024-01-06T00:16:56.677Z,1000.19
2024-01-06T00:17:56.732Z,1000.15
2024-01-06T00:18:56.755Z,1000.18
2024-01-06T00:19:56.850Z,1000.14
2024-01-06T00:20:56.592Z,1000.15
2024-01-06T00:21:56.704Z,1000.16
2024-01-06T00:22:56.563Z,1000.18
2024-01-06T00:23:56.555Z,1000.16
2024-01-06T00:24:56.647Z,1000.21
2024-01-06T00:25:56.552Z,1000.19
2024-01-06T00:26:56.525Z,1000.16
2024-01-06T00:27:56.581Z,1000.15
2024-01-06T00:28:56.517Z,1000.14
2024-01-06T00:29:56.497Z,1000.14
2024-01-06T00:30:56.519Z,1000.15
2024-01-06T00:31:56.455Z,1000.10
2024-01-06T00:32:56.560Z,1000.12
2024-01-06T00:33:56.585Z,1000.14
2024-01-06T00:34:56.435Z,1000.18
2024-01-06T00:35:56.398Z,1000.16
2024-01-06T00:36:56.413Z,1000.14
2024-01-06T00:37:56.382Z,1000.16
2024-01-06T00:38:56.373Z,1000.22
2024-01-06T00:39:56.376Z,1000.18
2024-01-06T00:40:56.476Z,1000.21
2024-01-06T00:41:56.315Z,1000.19
2024-01-06T00:42:56.504Z,1000.17
2024-01-06T00:43:56.322Z,1000.23
2024-01-06T00:44:56.282Z,1000.23
2024-01-06T00:45:56.325Z,1000.24
2024-01-06T00:46:56.283Z,1000.17
2024-01-06T00:47:56.327Z,1000.22
2024-01-06T00:48:56.334Z,1000.26
2024-01-06T00:49:56.218Z,1000.22
2024-01-06T00:50:56.214Z,1000.25
2024-01-06T00:51:56.308Z,1000.28
2024-01-06T00:52:56.200Z,1000.31
2024-01-06T00:53:56.194Z,1000.22
2024-01-06T00:54:56.153Z,1000.22
2024-01-06T00:55:56.136Z,1000.23
2024-01-06T00:56:58.367Z,1000.28
2024-01-06T00:57:56.109Z,1000.25
2024-01-06T00:58:56.110Z,1000.23
2024-01-06T00:59:56.092Z,1000.32
2024-01-06T01:00:56.228Z,1000.31
2024-01-06T01:01:56.092Z,1000.29
2024-01-06T01:02:56.064Z,1000.31
2024-01-06T01:03:56.092Z,1000.33
2024-01-06T01:04:56.118Z,1000.37
2024-01-06T01:05:56.025Z,1000.33
2024-01-06T01:06:56.070Z,1000.35
2024-01-06T01:07:56.034Z,1000.34
2024-01-06T01:08:55.988Z,1000.31
2024-01-06T01:09:55.992Z,1000.34
2024-01-06T01:10:55.964Z,1000.33
2024-01-06T01:11:55.973Z,1000.47
2024-01-06T01:12:56.025Z,1000.41
2024-01-06T01:13:55.944Z,1000.48
2024-01-06T01:14:55.912Z,1000.43
2024-01-06T01:15:55.890Z,1000.49
2024-01-06T01:16:55.887Z,1000.55
2024-01-06T01:17:56.097Z,1000.57
2024-01-06T01:18:55.970Z,1000.57
2024-01-06T01:19:55.911Z,1000.65
2024-01-06T01:20:55.820Z,1000.70
2024-01-06T01:21:55.832Z,1000.67
2024-01-06T01:22:55.832Z,1000.70
2024-01-06T01:23:55.780Z,1000.67
2024-01-06T01:24:55.775Z,1000.72
2024-01-06T01:25:55.802Z,1000.62
2024-01-06T01:26:55.783Z,1000.70
2024-01-06T01:27:55.776Z,1000.63
2024-01-06T01:28:55.715Z,1000.69
2024-01-06T01:29:55.743Z,1000.64
2024-01-06T01:30:55.789Z,1000.58
2024-01-06T01:31:55.891Z,1000.66
2024-01-06T01:32:55.723Z,1000.62
2024-01-06T01:33:55.849Z,1000.62
2024-01-06T01:34:55.757Z,1000.56
2024-01-06T01:35:55.642Z,1000.60
2024-01-06T01:36:55.621Z,1000.57
2024-01-06T01:37:55.610Z,1000.58
2024-01-06T01:38:55.606Z,1000.54
2024-01-06T01:39:55.596Z,1000.62
2024-01-06T01:40:55.579Z,1000.57
2024-01-06T01:41:55.580Z,1000.52
2024-01-06T01:42:55.561Z,1000.54
2024-01-06T01:43:55.542Z,1000.59
2024-01-06T01:44:55.546Z,1000.61
2024-01-06T01:45:55.633Z,1000.53
2024-01-06T01:46:55.505Z,1000.53
2024-01-06T01:47:55.559Z,1000.55
2024-01-06T01:48:55.622Z,1000.55
2024-01-06T01:49:55.517Z,1000.56
2024-01-06T01:50:55.492Z,1000.58
2024-01-06T01:51:55.473Z,1000.61
2024-01-06T01:52:55.428Z,1000.61
2024-01-06T01:53:55.411Z,1000.65
2024-01-06T01:54:55.487Z,1000.64
2024-01-06T01:55:55.387Z,1000.61
2024-01-06T01:56:55.412Z,1000.60
2024-01-06T01:57:55.350Z,1000.66
2024-01-06T01:58:55.357Z,1000.68
2024-01-06T01:59:55.332Z,1000.72
2024-01-06T02:00:55.467Z,1000.72
2024-01-06T02:01:55.313Z,1000.62
2024-01-06T02:02:55.360Z,1000.68
2024-01-06T02:03:55.314Z,1000.69
2024-01-06T02:04:55.290Z,1000.79
2024-01-06T02:05:55.256Z,1000.79
2024-01-06T02:06:55.300Z,1000.80
2024-01-06T02:07:55.220Z,1000.72
2024-01-06T02:08:55.233Z,1000.81
2024-01-06T02:09:55.258Z,1000.80
2024-01-06T02:10:55.181Z,1000.85
2024-01-06T02:11:55.180Z,1000.83
2024-01-06T02:12:55.244Z,1000.83
2024-01-06T02:13:55.157Z,1000.80
2024-01-06T02:14:55.148Z,1000.86
2024-01-06T02:15:55.167Z,1000.87
2024-01-06T02:16:55.133Z,1000.79
2024-01-06T02:17:55.160Z,1000.81
2024-01-06T02:18:55.194Z,1000.82
2024-01-06T02:19:55.168Z,1000.82
2024-01-06T02:20:55.075Z,1000.82
2024-01-06T02:21:55.082Z,1000.83
2024-01-06T02:22:55.026Z,1000.90
2024-01-06T02:23:55.030Z,1000.89
2024-01-06T02:24:55.051Z,1000.91
2024-01-06T02:25:55.012Z,1000.87
2024-01-06T02:26:54.986Z,1000.85
2024-01-06T02:27:55.068Z,1000.87
2024-01-06T02:28:54.987Z,1000.86
2024-01-06T02:29:54.940Z,1000.90
2024-01-06T02:30:54.993Z,1000.79
2024-01-06T02:31:54.962Z,1000.88
2024-01-06T02:32:55.016Z,1000.84
2024-01-06T02:33:55.041Z,1000.75
2024-01-06T02:34:54.947Z,1000.82
2024-01-06T02:35:54.904Z,1000.74
2024-01-06T02:36:54.881Z,1000.83
2024-01-06T02:37:54.843Z,1000.76
2024-01-06T02:38:54.833Z,1000.72
2024-01-06T02:39:54.909Z,1000.76
2024-01-06T02:40:54.820Z,1000.75
2024-01-06T02:41:54.788Z,1000.72
2024-01-06T02:42:54.812Z,1000.83
2024-01-06T02:43:54.789Z,1000.78
2024-01-06T02:44:54.766Z,1000.86
2024-01-06T02:45:54.791Z,1000.90
2024-01-06T02:46:54.717Z,1000.88
2024-01-06T02:47:54.781Z,1000.87
2024-01-06T02:48:54.853Z,1000.91
2024-01-06T02:49:54.807Z,1000.81
2024-01-06T02:50:54.679Z,1000.88
2024-01-06T02:51:54.681Z,1000.92
2024-01-06T02:52:54.651Z,1000.90
2024-01-06T02:53:54.647Z,1000.88
2024-01-06T02:54:54.690Z,1000.95
2024-01-06T02:55:54.637Z,1000.90
2024-01-06T02:56:54.595Z,1000.96
2024-01-06T02:57:54.658Z,1000.95
2024-01-06T02:58:54.580Z,1000.99
2024-01-06T02:59:54.563Z,1000.99
2024-01-06T03:00:54.636Z,1001.00
2024-01-06T03:01:54.559Z,1000.98
2024-01-06T03:02:54.534Z,1000.94
2024-01-06T03:03:54.623Z,1000.99
2024-01-06T03:04:54.493Z,1001.01
2024-01-06T03:05:54.514Z,1000.99
2024-01-06T03:06:54.895Z,1000.97
2024-01-06T03:07:54.484Z,1001.05
2024-01-06T03:08:54.451Z,1001.09
2024-01-06T03:09:54.507Z,1001.07
2024-01-06T03:10:54.434Z,1001.09
2024-01-06T03:11:54.426Z,1001.07
2024-01-06T03:12:54.452Z,1001.09
2024-01-06T03:13:54.417Z,1001.11
2024-01-06T03:14:54.381Z,1001.14
2024-01-06T03:15:54.411Z,1001.09
2024-01-06T03:16:54.359Z,1001.12
2024-01-06T03:17:54.436Z,1001.09
2024-01-06T03:18:54.424Z,1001.12
2024-01-06T03:19:54.443Z,1001.07
2024-01-06T03:20:54.311Z,1001.08
2024-01-06T03:21:54.324Z,1001.18
2024-01-06T03:22:54.276Z,1001.13
2024-01-06T03:23:54.257Z,1001.23
2024-01-06T03:24:54.299Z,1001.22
2024-01-06T03:25:54.258Z,1001.21
2024-01-06T03:26:54.218Z,1001.20
2024-01-06T03:27:54.248Z,1001.20
2024-01-06T03:28:54.193Z,1001.15
2024-01-06T03:29:54.188Z,1001.17
2024-01-06T03:30:54.312Z,1001.24
2024-01-06T03:31:54.174Z,1001.20
2024-01-06T03:32:54.183Z,1001.24
2024-01-06T03:33:54.179Z,1001.27
2024-01-06T03:34:54.176Z,1001.26
2024-01-06T03:35:54.122Z,1001.29
2024-01-06T03:36:54.141Z,1001.31
2024-01-06T03:37:54.113Z,1001.34
2024-01-06T03:38:54.076Z,1001.33
2024-01-06T03:39:54.082Z,1001.36
2024-01-06T03:40:54.042Z,1001.31
2024-01-06T03:41:54.051Z,1001.31
2024-01-06T03:42:54.039Z,1001.34
2024-01-06T03:43:54.075Z,1001.29
2024-01-06T03:44:54.021Z,1001.34
2024-01-06T03:45:54.066Z,1001.35
2024-01-06T03:46:53.978Z,1001.36
2024-01-06T03:47:54.074Z,1001.40
2024-01-06T03:48:54.122Z,1001.42
2024-01-06T03:49:54.024Z,1001.43
2024-01-06T03:50:53.998Z,1001.41
2024-01-06T03:51:53.998Z,1001.38
2024-01-06T03:52:53.903Z,1001.41
2024-01-06T03:53:53.899Z,1001.46
2024-01-06T03:54:53.898Z,1001.43
2024-01-06T03:55:53.872Z,1001.46
2024-01-06T03:56:53.838Z,1001.50
2024-01-06T03:57:53.876Z,1001.45
2024-01-06T03:58:53.821Z,1001.48
2024-01-06T03:59:53.846Z,1001.43
2024-01-06T04:00:53.839Z,1001.53
2024-01-06T04:01:53.794Z,1001.53
2024-01-06T04:02:53.763Z,1001.51
2024-01-06T04:03:53.866Z,1001.52
2024-01-06T04:04:53.769Z,1001.54
2024-01-06T04:05:53.817Z,1001.55
2024-01-06T04:06:53.760Z,1001.44
2024-01-06T04:07:53.726Z,1001.51
2024-01-06T04:08:53.694Z,1001.44
2024-01-06T04:09:53.697Z,1001.48
2024-01-06T04:10:53.689Z,1001.47
2024-01-06T04:11:53.662Z,1001.44
2024-01-06T04:12:53.648Z,1001.50
2024-01-06T04:13:53.656Z,1001.43
2024-01-06T04:14:53.627Z,1001.48
2024-01-06T04:15:53.675Z,1001.53
2024-01-06T04:16:53.597Z,1001.43
2024-01-06T04:17:53.722Z,1001.49
2024-01-06T04:18:53.714Z,1001.42
2024-01-06T04:19:53.596Z,1001.45
2024-01-06T04:20:53.534Z,1001.50
2024-01-06T04:21:53.620Z,1001.42
2024-01-06T04:22:53.517Z,1001.46
2024-01-06T04:23:53.520Z,1001.47
2024-01-06T04:24:53.600Z,1001.47
2024-01-06T04:25:53.500Z,1001.53
2024-01-06T04:26:53.460Z,1001.55
2024-01-06T04:27:53.546Z,1001.57
2024-01-06T04:28:53.439Z,1001.57
2024-01-06T04:29:53.428Z,1001.54
2024-01-06T04:30:53.523Z,1001.51
2024-01-06T04:31:53.484Z,1001.52
2024-01-06T04:32:53.527Z,1001.54
2024-01-06T04:33:53.610Z,1001.60
2024-01-06T04:34:53.346Z,1001.56
2024-01-06T04:35:53.358Z,1001.64
2024-01-06T04:36:53.391Z,1001.61
2024-01-06T04:37:53.410Z,1001.58
2024-01-06T04:38:53.319Z,1001.64
2024-01-06T04:39:53.388Z,1001.63
2024-01-06T04:40:53.304Z,1001.70
2024-01-06T04:41:53.261Z,1001.70
2024-01-06T04:42:53.442Z,1001.73
2024-01-06T04:43:53.248Z,1001.74
2024-01-06T04:44:53.216Z,1001.75
2024-01-06T04:45:53.330Z,1001.78
2024-01-06T04:46:53.235Z,1001.83
2024-01-06T04:47:53.221Z,1001.85
2024-01-06T04:48:53.249Z,1001.83
2024-01-06T04:49:53.217Z,1001.85
2024-01-06T04:50:53.145Z,1001.82
2024-01-06T04:51:53.196Z,1001.88
2024-01-06T04:52:53.125Z,1001.93
2024-01-06T04:53:53.127Z,1001.89
2024-01-06T04:54:53.176Z,1001.90
2024-01-06T04:55:53.100Z,1001.89
2024-01-06T04:56:53.073Z,1001.93
2024-01-06T04:57:53.148Z,1001.93
2024-01-06T04:58:53.050Z,1001.95
2024-01-06T04:59:53.044Z,1001.96
2024-01-06T05:00:53.191Z,1001.94
2024-01-06T05:01:53.013Z,1002.01
2024-01-06T05:02:53.050Z,1001.97
2024-01-06T05:03:53.108Z,1001.94
2024-01-06T05:04:53.033Z,1002.00
2024-01-06T05:05:52.964Z,1002.01
2024-01-06T05:06:53.058Z,1001.93
2024-01-06T05:07:52.922Z,1002.01
2024-01-06T05:08:52.911Z,1002.00
2024-01-06T05:09:52.955Z,1002.03
2024-01-06T05:10:52.912Z,1002.10
2024-01-06T05:11:52.871Z,1002.02
2024-01-06T05:12:52.991Z,1002.03
2024-01-06T05:13:52.866Z,1002.08
2024-01-06T05:14:52.856Z,1002.03
2024-01-06T05:15:52.850Z,1002.08
2024-01-06T05:16:52.838Z,1002.05
2024-01-06T05:17:52.866Z,1002.06
2024-01-06T05:18:52.989Z,1002.11
2024-01-06T05:19:52.846Z,1002.11
2024-01-06T05:20:52.782Z,1002.11
2024-01-06T05:21:52.799Z,1002.22
2024-01-06T05:22:52.757Z,1002.22
2024-01-06T05:23:52.738Z,1002.19
2024-01-06T05:24:52.797Z,1002.24
2024-01-06T05:25:52.716Z,1002.26
2024-01-06T05:26:52.696Z,1002.23
2024-01-06T05:27:52.786Z,1002.22
2024-01-06T05:28:52.682Z,1002.24
2024-01-06T05:29:52.647Z,1002.27
2024-01-06T05:30:52.719Z,1002.30
2024-01-06T05:31:52.700Z,1002.34
2024-01-06T05:32:52.689Z,1002.28
2024-01-06T05:33:52.700Z,1002.36
2024-01-06T05:34:52.669Z,1002.31
2024-01-06T05:35:52.628Z,1002.35
2024-01-06T05:36:52.598Z,1002.30
2024-01-06T05:37:52.580Z,1002.35
2024-01-06T05:38:53.607Z,1002.32
2024-01-06T05:39:52.566Z,1002.34
2024-01-06T05:40:52.531Z,1002.42
2024-01-06T05:41:52.498Z,1002.39
2024-01-06T05:42:52.640Z,1002.40
2024-01-06T05:43:52.494Z,1002.41
2024-01-06T05:44:52.465Z,1002.39
2024-01-06T05:45:52.554Z,1002.39
2024-01-06T05:46:52.440Z,1002.39
2024-01-06T05:47:52.496Z,1002.39
2024-01-06T05:48:52.669Z,1002.45
2024-01-06T05:49:52.411Z,1002.46
2024-01-06T05:50:52.409Z,1002.48
2024-01-06T05:51:52.420Z,1002.42
2024-01-06T05:52:52.378Z,1002.47
2024-01-06T05:53:52.359Z,1002.54
2024-01-06T05:54:52.569Z,1002.47
2024-01-06T05:55:52.320Z,1002.54
2024-01-06T05:56:52.332Z,1002.50
2024-01-06T05:57:52.391Z,1002.57
2024-01-06T05:58:52.298Z,1002.51
2024-01-06T05:59:52.303Z,1002.56
2024-01-06T06:00:52.438Z,1002.64
2024-01-06T06:01:52.266Z,1002.65
2024-01-06T06:02:52.285Z,1002.61
2024-01-06T06:03:52.742Z,1002.67
2024-01-06T06:04:52.233Z,1002.67
2024-01-06T06:05:52.252Z,1002.61
2024-01-06T06:06:52.331Z,1002.61
2024-01-06T06:07:52.187Z,1002.66
2024-01-06T06:08:52.185Z,1002.71
2024-01-06T06:09:52.195Z,1002.71
2024-01-06T06:10:52.179Z,1002.75
2024-01-06T06:11:52.141Z,1002.70
2024-01-06T06:12:52.215Z,1002.75
2024-01-06T06:13:52.095Z,1002.78
2024-01-06T06:14:52.092Z,1002.80
2024-01-06T06:15:52.102Z,1002.80
2024-01-06T06:16:52.072Z,1002.84
2024-01-06T06:17:52.089Z,1002.79
2024-01-06T06:18:52.153Z,1002.89
2024-01-06T06:19:52.137Z,1002.86
2024-01-06T06:20:52.030Z,1002.95
2024-01-06T06:21:52.049Z,1002.97
2024-01-06T06:22:51.986Z,1002.96
2024-01-06T06:23:51.962Z,1003.04
2024-01-06T06:24:52.121Z,1002.97
2024-01-06T06:25:51.951Z,1002.99
2024-01-06T06:26:51.926Z,1003.01
2024-01-06T06:27:51.968Z,1003.04
2024-01-06T06:28:51.904Z,1003.01
2024-01-06T06:29:51.904Z,1003.08
2024-01-06T06:30:51.973Z,1003.08
2024-01-06T06:31:51.946Z,1003.02
2024-01-06T06:32:51.923Z,1003.11
2024-01-06T06:33:51.989Z,1003.13
2024-01-06T06:34:52.004Z,1003.10
2024-01-06T06:35:51.808Z,1003.06
2024-01-06T06:36:51.955Z,1003.14
2024-01-06T06:37:51.800Z,1003.09
2024-01-06T06:38:51.776Z,1003.13
2024-01-06T06:39:51.846Z,1003.11
2024-01-06T06:40:51.750Z,1003.16
2024-01-06T06:41:51.754Z,1003.19
2024-01-06T06:42:51.868Z,1003.17
2024-01-06T06:43:51.700Z,1003.17
2024-01-06T06:44:51.699Z,1003.23
2024-01-06T06:45:51.844Z,1003.22
2024-01-06T06:46:51.687Z,1003.25
2024-01-06T06:47:51.719Z,1003.27
2024-01-06T06:48:51.762Z,1003.28
2024-01-06T06:49:51.646Z,1003.35
2024-01-06T06:50:51.643Z,1003.31
2024-01-06T06:51:51.663Z,1003.39
2024-01-06T06:52:51.631Z,1003.40
2024-01-06T06:53:51.652Z,1003.37
2024-01-06T06:54:51.697Z,1003.46
2024-01-06T06:55:51.559Z,1003.42
2024-01-06T06:56:51.560Z,1003.40
2024-01-06T06:57:51.633Z,1003.46
2024-01-06T06:58:51.543Z,1003.45
2024-01-06T06:59:51.504Z,1003.44
2024-01-06T07:00:51.677Z,1003.49
2024-01-06T07:01:51.603Z,1003.55
2024-01-06T07:02:51.488Z,1003.57
2024-01-06T07:03:51.500Z,1003.59
2024-01-06T07:04:51.462Z,1003.65
2024-01-06T07:05:51.608Z,1003.70
2024-01-06T07:06:51.535Z,1003.70
2024-01-06T07:07:51.417Z,1003.77
2024-01-06T07:08:51.421Z,1003.76
2024-01-06T07:09:51.433Z,1003.84
2024-01-06T07:10:51.386Z,1003.84
2024-01-06T07:11:51.368Z,1003.86
2024-01-06T07:12:51.432Z,1003.89
2024-01-06T07:13:51.331Z,1003.94
2024-01-06T07:14:51.340Z,1003.90
2024-01-06T07:15:52.393Z,1003.89
2024-01-06T07:16:51.327Z,1003.81
2024-01-06T07:17:51.397Z,1003.91
2024-01-06T07:18:51.355Z,1003.88
2024-01-06T07:19:51.385Z,1003.89
2024-01-06T07:20:51.266Z,1003.88
2024-01-06T07:21:51.326Z,1003.95
2024-01-06T07:22:51.235Z,1003.92
2024-01-06T07:23:51.226Z,1003.97
2024-01-06T07:24:51.324Z,1004.02
2024-01-06T07:25:51.177Z,1004.07
2024-01-06T07:26:51.169Z,1004.11
2024-01-06T07:27:54.451Z,1004.10
2024-01-06T07:28:51.153Z,1004.10
2024-01-06T07:29:51.155Z,1004.13
2024-01-06T07:30:51.208Z,1004.15
2024-01-06T07:31:51.128Z,1004.09
2024-01-06T07:32:51.150Z,1004.19
2024-01-06T07:33:51.109Z,1004.17
2024-01-06T07:34:51.110Z,1004.18
2024-01-06T07:35:51.040Z,1004.23
2024-01-06T07:36:51.076Z,1004.20
2024-01-06T07:37:51.035Z,1004.24
2024-01-06T07:38:51.024Z,1004.31
2024-01-06T07:39:51.179Z,1004.30
2024-01-06T07:40:50.994Z,1004.27
2024-01-06T07:41:50.977Z,1004.32
2024-01-06T07:42:51.092Z,1004.27
2024-01-06T07:43:50.980Z,1004.31
2024-01-06T07:44:50.953Z,1004.29
2024-01-06T07:45:50.986Z,1004.28
2024-01-06T07:46:50.913Z,1004.30
2024-01-06T07:47:50.976Z,1004.26
2024-01-06T07:48:50.963Z,1004.21
2024-01-06T07:49:50.945Z,1004.29
2024-01-06T07:50:50.857Z,1004.31
2024-01-06T07:51:50.952Z,1004.35
2024-01-06T07:52:50.850Z,1004.35
2024-01-06T07:53:50.817Z,1004.30
2024-01-06T07:54:50.895Z,1004.34
2024-01-06T07:55:50.834Z,1004.40
2024-01-06T07:56:50.792Z,1004.37
2024-01-06T07:57:50.904Z,1004.38
2024-01-06T07:58:50.764Z,1004.34
2024-01-06T07:59:50.743Z,1004.30
2024-01-06T08:00:50.807Z,1004.44
2024-01-06T08:01:50.853Z,1004.45
2024-01-06T08:02:50.711Z,1004.44
2024-01-06T08:03:50.827Z,1004.51
2024-01-06T08:04:50.762Z,1004.52
2024-01-06T08:05:50.679Z,1004.55
2024-01-06T08:06:52.901Z,1004.56
2024-01-06T08:07:50.666Z,1004.63
2024-01-06T08:08:50.617Z,1004.70
2024-01-06T08:09:50.672Z,1004.71
2024-01-06T08:10:50.608Z,1004.69
2024-01-06T08:11:50.601Z,1004.71
2024-01-06T08:12:50.632Z,1004.77
2024-01-06T08:13:50.549Z,1004.77
2024-01-06T08:14:50.567Z,1004.81
2024-01-06T08:15:50.694Z,1004.79
2024-01-06T08:16:50.569Z,1004.80
2024-01-06T08:17:50.678Z,1004.84
2024-01-06T08:18:50.638Z,1004.80
2024-01-06T08:19:50.788Z,1004.87
2024-01-06T08:20:50.493Z,1004.80
2024-01-06T08:21:50.515Z,1004.86
2024-01-06T08:22:50.467Z,1004.91
2024-01-06T08:23:50.442Z,1004.89
2024-01-06T08:24:50.438Z,1004.92
2024-01-06T08:25:50.400Z,1004.94
2024-01-06T08:26:50.398Z,1004.89
2024-01-06T08:27:50.410Z,1004.98
2024-01-06T08:28:50.400Z,1004.93
2024-01-06T08:29:50.378Z,1004.92
2024-01-06T08:30:50.453Z,1004.95
2024-01-06T08:31:50.397Z,1004.94
2024-01-06T08:32:50.422Z,1004.96
2024-01-06T08:33:50.409Z,1004.92
2024-01-06T08:34:50.372Z,1005.01
2024-01-06T08:35:50.278Z,1004.92
2024-01-06T08:36:50.377Z,1004.94
2024-01-06T08:37:50.256Z,1005.00
2024-01-06T08:38:50.281Z,1005.03
2024-01-06T08:39:50.373Z,1005.07
2024-01-06T08:40:50.312Z,1005.04
2024-01-06T08:41:50.228Z,1005.04
2024-01-06T08:42:50.283Z,1005.06
2024-01-06T08:43:50.180Z,1005.06
2024-01-06T08:44:50.207Z,1004.97
2024-01-06T08:45:50.231Z,1004.96
2024-01-06T08:46:50.151Z,1005.01
2024-01-06T08:47:50.163Z,1004.92
2024-01-06T08:48:50.235Z,1004.99
2024-01-06T08:49:50.167Z,1005.01
2024-01-06T08:50:50.101Z,1005.05
2024-01-06T08:51:50.131Z,1005.13
2024-01-06T08:52:50.111Z,1005.13
2024-01-06T08:53:50.045Z,1005.12
2024-01-06T08:54:50.096Z,1005.18
2024-01-06T08:55:50.033Z,1005.19
2024-01-06T08:56:50.053Z,1005.20
2024-01-06T08:57:50.057Z,1005.19
2024-01-06T08:58:49.992Z,1005.25
2024-01-06T08:59:50.006Z,1005.28
2024-01-06T09:00:50.034Z,1005.28
2024-01-06T09:01:50.680Z,1005.25
2024-01-06T09:02:50.012Z,1005.26
2024-01-06T09:03:50.004Z,1005.27
2024-01-06T09:04:49.910Z,1005.32
2024-01-06T09:05:49.932Z,1005.35
2024-01-06T09:06:49.931Z,1005.34
2024-01-06T09:07:53.742Z,1005.41
2024-01-06T09:08:49.879Z,1005.42
2024-01-06T09:09:49.884Z,1005.44
2024-01-06T09:10:49.845Z,1005.41
2024-01-06T09:11:49.814Z,1005.43
2024-01-06T09:12:49.866Z,1005.48
2024-01-06T09:13:49.799Z,1005.48
2024-01-06T09:14:49.779Z,1005.57
2024-01-06T09:15:49.839Z,1005.53
2024-01-06T09:16:49.759Z,1005.63
2024-01-06T09:17:49.915Z,1005.58
2024-01-06T09:18:49.843Z,1005.64
2024-01-06T09:19:49.792Z,1005.60
2024-01-06T09:20:49.719Z,1005.71
2024-01-06T09:21:49.749Z,1005.76
2024-01-06T09:22:49.676Z,1005.76
2024-01-06T09:23:49.667Z,1005.66
2024-01-06T09:24:49.711Z,1005.80
2024-01-06T09:25:49.647Z,1005.83
2024-01-06T09:26:49.631Z,1005.78
2024-01-06T09:27:49.686Z,1005.84
2024-01-06T09:28:49.635Z,1005.80
2024-01-06T09:29:49.619Z,1005.82
2024-01-06T09:30:49.643Z,1005.82
2024-01-06T09:31:49.653Z,1005.81
2024-01-06T09:32:49.614Z,1005.79
2024-01-06T09:33:49.617Z,1005.77
2024-01-06T09:34:49.622Z,1005.78
2024-01-06T09:35:49.512Z,1005.84
2024-01-06T09:36:49.510Z,1005.81
2024-01-06T09:37:49.495Z,1005.86
2024-01-06T09:38:49.487Z,1005.85
2024-01-06T09:39:49.512Z,1005.90
2024-01-06T09:40:49.532Z,1005.80
2024-01-06T09:41:49.459Z,1005.89
2024-01-06T09:42:49.461Z,1005.83
2024-01-06T09:43:49.415Z,1005.88
2024-01-06T09:44:49.414Z,1005.93
2024-01-06T09:45:49.424Z,1005.93
2024-01-06T09:46:49.381Z,1005.89
2024-01-06T09:47:49.424Z,1005.87
2024-01-06T09:48:49.492Z,1005.81
2024-01-06T09:49:49.378Z,1005.85
2024-01-06T09:50:49.342Z,1005.85
2024-01-06T09:51:49.343Z,1005.90
2024-01-06T09:52:49.289Z,1005.85
2024-01-06T09:53:49.283Z,1005.94
2024-01-06T09:54:49.336Z,1005.95
2024-01-06T09:55:49.271Z,1005.91
2024-01-06T09:56:49.276Z,1005.92
2024-01-06T09:57:49.355Z,1005.94
2024-01-06T09:58:49.264Z,1005.92
2024-01-06T09:59:49.220Z,1005.90
2024-01-06T10:00:49.241Z,1005.90
2024-01-06T10:01:49.231Z,1005.95
2024-01-06T10:02:49.170Z,1005.93
2024-01-06T10:03:49.296Z,1005.94
2024-01-06T10:04:49.234Z,1005.95
2024-01-06T10:05:49.173Z,1006.01
2024-01-06T10:06:49.141Z,1006.11
2024-01-06T10:07:49.129Z,1006.11
2024-01-06T10:08:49.113Z,1006.17
2024-01-06T10:09:49.096Z,1006.14
2024-01-06T10:10:49.062Z,1006.11
2024-01-06T10:11:49.063Z,1006.11
2024-01-06T10:12:49.107Z,1006.26
2024-01-06T10:13:49.048Z,1006.24
2024-01-06T10:14:49.021Z,1006.29
2024-01-06T10:15:49.034Z,1006.27
2024-01-06T10:16:48.996Z,1006.32
2024-01-06T10:17:49.074Z,1006.29
2024-01-06T10:18:53.512Z,1006.31
2024-01-06T10:19:49.067Z,1006.30
2024-01-06T10:20:48.933Z,1006.28
2024-01-06T10:21:48.974Z,1006.32
2024-01-06T10:22:48.925Z,1006.28
2024-01-06T10:23:48.901Z,1006.29
2024-01-06T10:24:49.042Z,1006.28
2024-01-06T10:25:49.509Z,1006.17
2024-01-06T10:26:48.883Z,1006.25
2024-01-06T10:27:48.926Z,1006.22
2024-01-06T10:28:48.843Z,1006.21
2024-01-06T10:29:48.837Z,1006.11
2024-01-06T10:30:48.995Z,1006.17
2024-01-06T10:31:51.599Z,1006.14
2024-01-06T10:32:48.930Z,1006.16
2024-01-06T10:33:48.991Z,1006.14
2024-01-06T10:34:48.835Z,1006.24
2024-01-06T10:35:48.742Z,1006.25
2024-01-06T10:36:48.747Z,1006.24
2024-01-06T10:37:48.759Z,1006.26
2024-01-06T10:38:48.710Z,1006.22
2024-01-06T10:39:48.718Z,1006.26
2024-01-06T10:40:48.692Z,1006.28
2024-01-06T10:41:48.684Z,1006.29
2024-01-06T10:42:48.714Z,1006.32
2024-01-06T10:43:48.651Z,1006.34
2024-01-06T10:44:48.643Z,1006.34
2024-01-06T10:45:48.656Z,1006.30
2024-01-06T10:46:48.621Z,1006.39
2024-01-06T10:47:48.672Z,1006.40
2024-01-06T10:48:48.670Z,1006.37
2024-01-06T10:49:48.654Z,1006.39
2024-01-06T10:50:48.572Z,1006.38
2024-01-06T10:51:48.605Z,1006.35
2024-01-06T10:52:48.682Z,1006.38
2024-01-06T10:53:48.555Z,1006.37
2024-01-06T10:54:48.714Z,1006.37
2024-01-06T10:55:48.495Z,1006.38
2024-01-06T10:56:48.471Z,1006.40
2024-01-06T10:57:48.546Z,1006.40
2024-01-06T10:58:48.479Z,1006.34
2024-01-06T10:59:48.464Z,1006.38
2024-01-06T11:00:48.489Z,1006.36
2024-01-06T11:01:48.527Z,1006.36
2024-01-06T11:02:48.397Z,1006.36
2024-01-06T11:03:48.605Z,1006.34
2024-01-06T11:04:48.376Z,1006.29
2024-01-06T11:05:48.415Z,1006.32
2024-01-06T11:06:48.383Z,1006.39
2024-01-06T11:07:48.373Z,1006.30
2024-01-06T11:08:48.331Z,1006.33
2024-01-06T11:09:48.394Z,1006.43
2024-01-06T11:10:48.294Z,1006.49
2024-01-06T11:11:48.289Z,1006.48
2024-01-06T11:12:48.313Z,1006.54
2024-01-06T11:13:48.301Z,1006.56
2024-01-06T11:14:48.284Z,1006.44
2024-01-06T11:15:48.296Z,1006.52
2024-01-06T11:16:48.226Z,1006.56
2024-01-06T11:17:48.305Z,1006.56
2024-01-06T11:18:48.305Z,1006.57
2024-01-06T11:19:48.268Z,1006.52
2024-01-06T11:20:48.163Z,1006.40
2024-01-06T11:21:48.199Z,1006.48
2024-01-06T11:22:48.169Z,1006.44
2024-01-06T11:23:48.150Z,1006.38
2024-01-06T11:24:48.208Z,1006.46
2024-01-06T11:25:48.102Z,1006.43
2024-01-06T11:26:48.107Z,1006.37
2024-01-06T11:27:48.130Z,1006.38
2024-01-06T11:28:48.103Z,1006.37
2024-01-06T11:29:48.053Z,1006.40
2024-01-06T11:30:48.118Z,1006.42
2024-01-06T11:31:48.126Z,1006.44
2024-01-06T11:32:48.101Z,1006.38
2024-01-06T11:33:48.074Z,1006.36
2024-01-06T11:34:48.072Z,1006.36
2024-01-06T11:35:47.974Z,1006.42
2024-01-06T11:36:48.027Z,1006.41
2024-01-06T11:37:47.950Z,1006.40
2024-01-06T11:38:47.945Z,1006.41
2024-01-06T11:39:47.986Z,1006.42
2024-01-06T11:40:47.909Z,1006.35
2024-01-06T11:41:47.902Z,1006.31
2024-01-06T11:42:47.991Z,1006.37
2024-01-06T11:43:47.892Z,1006.29
2024-01-06T11:44:47.870Z,1006.36
2024-01-06T11:45:47.887Z,1006.37
2024-01-06T11:46:47.837Z,1006.40
2024-01-06T11:47:47.933Z,1006.38
2024-01-06T11:48:47.952Z,1006.37
2024-01-06T11:49:47.855Z,1006.36
2024-01-06T11:50:47.794Z,1006.39
2024-01-06T11:51:47.820Z,1006.34
2024-01-06T11:52:47.785Z,1006.35
2024-01-06T11:53:47.766Z,1006.37
2024-01-06T11:54:47.810Z,1006.35
2024-01-06T11:55:47.718Z,1006.36
2024-01-06T11:56:47.717Z,1006.33
2024-01-06T11:57:47.731Z,1006.35
2024-01-06T11:58:47.753Z,1006.42
2024-01-06T11:59:47.687Z,1006.42
2024-01-06T12:00:49.287Z,1006.35
2024-01-06T12:01:47.735Z,1006.36
2024-01-06T12:02:47.644Z,1006.37
2024-01-06T12:03:47.733Z,1006.35
2024-01-06T12:04:47.661Z,1006.40
2024-01-06T12:05:47.625Z,1006.34